sensor_id;sensor_type;location;lat;lon;timestamp;P1;durP1;ratioP1;P2;durP2;ratioP2
1054;SDS011;516;51.482;7.120;2023-03-23T00:04:24;10.70;;;6.23;;
1054;SDS011;516;51.482;7.120;2023-03-23T00:10:14;6.27;;;5.53;;
1054;SDS011;516;51.482;7.120;2023-03-23T00:16:01;7.40;;;5.50;;
1054;SDS011;516;51.482;7.120;2023-03-23T00:21:49;5.70;;;4.30;;
1054;SDS011;516;51.482;7.120;2023-03-23T00:27:40;7.67;;;4.73;;
1054;SDS011;516;51.482;7.120;2023-03-23T00:33:29;6.47;;;4.00;;
1054;SDS011;516;51.482;7.120;2023-03-23T00:39:20;6.37;;;4.60;;
1054;SDS011;516;51.482;7.120;2023-03-23T00:55:24;4.90;;;4.40;;
1054;SDS011;516;51.482;7.120;2023-03-23T01:01:12;4.83;;;4.20;;
1054;SDS011;516;51.482;7.120;2023-03-23T01:06:41;5.20;;;3.80;;
1054;SDS011;516;51.482;7.120;2023-03-23T01:12:29;5.47;;;4.50;;
1054;SDS011;516;51.482;7.120;2023-03-23T01:18:17;5.37;;;4.20;;
1054;SDS011;516;51.482;7.120;2023-03-23T01:24:04;6.00;;;4.03;;
1054;SDS011;516;51.482;7.120;2023-03-23T01:29:52;5.43;;;3.97;;
1054;SDS011;516;51.482;7.120;2023-03-23T01:35:40;8.60;;;3.90;;
1054;SDS011;516;51.482;7.120;2023-03-23T01:41:28;3.93;;;3.40;;
1054;SDS011;516;51.482;7.120;2023-03-23T01:46:56;10.70;;;3.80;;
1054;SDS011;516;51.482;7.120;2023-03-23T01:52:44;5.63;;;3.43;;
1054;SDS011;516;51.482;7.120;2023-03-23T01:58:33;3.60;;;3.23;;
1054;SDS011;516;51.482;7.120;2023-03-23T02:04:24;5.17;;;3.33;;
1054;SDS011;516;51.482;7.120;2023-03-23T02:10:13;4.37;;;3.03;;
1054;SDS011;516;51.482;7.120;2023-03-23T02:16:06;4.17;;;3.27;;
1054;SDS011;516;51.482;7.120;2023-03-23T02:22:31;5.43;;;3.97;;
1054;SDS011;516;51.482;7.120;2023-03-23T02:34:59;5.33;;;3.80;;
1054;SDS011;516;51.482;7.120;2023-03-23T02:40:50;4.87;;;3.50;;
1054;SDS011;516;51.482;7.120;2023-03-23T02:50:05;6.03;;;4.03;;
1054;SDS011;516;51.482;7.120;2023-03-23T02:55:59;5.40;;;3.60;;
1054;SDS011;516;51.482;7.120;2023-03-23T03:01:50;4.43;;;3.80;;
1054;SDS011;516;51.482;7.120;2023-03-23T03:15:17;4.50;;;3.53;;
1054;SDS011;516;51.482;7.120;2023-03-23T03:25:07;5.03;;;3.30;;
1054;SDS011;516;51.482;7.120;2023-03-23T03:31:00;4.37;;;3.10;;
1054;SDS011;516;51.482;7.120;2023-03-23T03:36:51;4.47;;;3.53;;
1054;SDS011;516;51.482;7.120;2023-03-23T03:42:41;3.10;;;2.70;;
1054;SDS011;516;51.482;7.120;2023-03-23T03:47:53;3.53;;;2.90;;
1054;SDS011;516;51.482;7.120;2023-03-23T03:53:40;5.03;;;3.20;;
1054;SDS011;516;51.482;7.120;2023-03-23T03:59:28;4.77;;;2.53;;
1054;SDS011;516;51.482;7.120;2023-03-23T04:05:17;4.53;;;3.70;;
1054;SDS011;516;51.482;7.120;2023-03-23T04:11:06;3.30;;;3.00;;
1054;SDS011;516;51.482;7.120;2023-03-23T04:16:54;12.93;;;4.80;;
1054;SDS011;516;51.482;7.120;2023-03-23T04:22:44;4.50;;;4.10;;
1054;SDS011;516;51.482;7.120;2023-03-23T04:28:36;3.97;;;3.30;;
1054;SDS011;516;51.482;7.120;2023-03-23T04:34:23;4.87;;;4.37;;
1054;SDS011;516;51.482;7.120;2023-03-23T04:40:12;4.17;;;3.60;;
1054;SDS011;516;51.482;7.120;2023-03-23T04:55:51;4.30;;;3.17;;
1054;SDS011;516;51.482;7.120;2023-03-23T05:01:39;4.43;;;3.70;;
1054;SDS011;516;51.482;7.120;2023-03-23T05:07:32;3.90;;;3.60;;
1054;SDS011;516;51.482;7.120;2023-03-23T05:13:20;4.40;;;3.70;;
1054;SDS011;516;51.482;7.120;2023-03-23T05:19:08;7.57;;;4.03;;
1054;SDS011;516;51.482;7.120;2023-03-23T05:24:56;4.10;;;3.30;;
1054;SDS011;516;51.482;7.120;2023-03-23T05:30:49;4.60;;;3.17;;
1054;SDS011;516;51.482;7.120;2023-03-23T05:36:37;3.93;;;3.20;;
1054;SDS011;516;51.482;7.120;2023-03-23T05:42:24;3.47;;;3.17;;
1054;SDS011;516;51.482;7.120;2023-03-23T05:47:56;4.40;;;4.00;;
1054;SDS011;516;51.482;7.120;2023-03-23T05:53:44;3.40;;;3.10;;
1054;SDS011;516;51.482;7.120;2023-03-23T05:59:31;4.10;;;3.70;;
1054;SDS011;516;51.482;7.120;2023-03-23T06:05:20;4.13;;;3.73;;
1054;SDS011;516;51.482;7.120;2023-03-23T06:11:09;4.03;;;3.50;;
1054;SDS011;516;51.482;7.120;2023-03-23T06:16:56;3.93;;;3.20;;
1054;SDS011;516;51.482;7.120;2023-03-23T06:22:44;4.90;;;4.30;;
1054;SDS011;516;51.482;7.120;2023-03-23T06:28:32;4.60;;;4.17;;
1054;SDS011;516;51.482;7.120;2023-03-23T06:34:20;4.83;;;4.33;;
1054;SDS011;516;51.482;7.120;2023-03-23T06:40:08;8.03;;;3.93;;
1054;SDS011;516;51.482;7.120;2023-03-23T06:52:37;4.93;;;4.47;;
1054;SDS011;516;51.482;7.120;2023-03-23T06:55:03;3.73;;;3.40;;
1054;SDS011;516;51.482;7.120;2023-03-23T07:00:54;4.50;;;4.10;;
1054;SDS011;516;51.482;7.120;2023-03-23T07:06:43;7.73;;;4.90;;
1054;SDS011;516;51.482;7.120;2023-03-23T07:12:31;4.80;;;4.37;;
1054;SDS011;516;51.482;7.120;2023-03-23T07:18:20;6.67;;;5.13;;
1054;SDS011;516;51.482;7.120;2023-03-23T07:24:11;7.73;;;4.57;;
1054;SDS011;516;51.482;7.120;2023-03-23T07:30:00;10.03;;;5.10;;
1054;SDS011;516;51.482;7.120;2023-03-23T07:35:48;9.17;;;5.03;;
1054;SDS011;516;51.482;7.120;2023-03-23T07:41:35;4.40;;;4.10;;
1054;SDS011;516;51.482;7.120;2023-03-23T07:50:45;7.00;;;4.20;;
1054;SDS011;516;51.482;7.120;2023-03-23T07:56:34;6.07;;;5.00;;
1054;SDS011;516;51.482;7.120;2023-03-23T08:02:23;4.53;;;3.67;;
1054;SDS011;516;51.482;7.120;2023-03-23T08:08:11;7.93;;;4.37;;
1054;SDS011;516;51.482;7.120;2023-03-23T08:13:59;4.53;;;3.90;;
1054;SDS011;516;51.482;7.120;2023-03-23T08:19:47;5.30;;;4.63;;
1054;SDS011;516;51.482;7.120;2023-03-23T08:25:35;6.97;;;5.00;;
1054;SDS011;516;51.482;7.120;2023-03-23T08:31:23;5.63;;;5.13;;
1054;SDS011;516;51.482;7.120;2023-03-23T08:37:11;4.70;;;4.30;;
1054;SDS011;516;51.482;7.120;2023-03-23T08:42:59;4.43;;;4.13;;
1054;SDS011;516;51.482;7.120;2023-03-23T08:48:58;7.50;;;4.57;;
1054;SDS011;516;51.482;7.120;2023-03-23T08:54:46;7.43;;;4.87;;
1054;SDS011;516;51.482;7.120;2023-03-23T09:00:34;4.50;;;4.20;;
1054;SDS011;516;51.482;7.120;2023-03-23T09:06:21;5.40;;;4.90;;
1054;SDS011;516;51.482;7.120;2023-03-23T09:12:08;5.53;;;5.03;;
1054;SDS011;516;51.482;7.120;2023-03-23T09:17:56;8.73;;;4.70;;
1054;SDS011;516;51.482;7.120;2023-03-23T09:23:44;5.40;;;4.80;;
1054;SDS011;516;51.482;7.120;2023-03-23T09:29:32;6.40;;;5.90;;
1054;SDS011;516;51.482;7.120;2023-03-23T09:35:20;6.10;;;5.50;;
1054;SDS011;516;51.482;7.120;2023-03-23T09:57:28;5.30;;;5.00;;
1054;SDS011;516;51.482;7.120;2023-03-23T10:04:14;8.80;;;6.43;;
1054;SDS011;516;51.482;7.120;2023-03-23T10:10:03;4.40;;;1.97;;
1054;SDS011;516;51.482;7.120;2023-03-23T10:15:54;8.30;;;2.20;;
1054;SDS011;516;51.482;7.120;2023-03-23T10:21:44;3.80;;;2.43;;
1054;SDS011;516;51.482;7.120;2023-03-23T10:27:42;7.87;;;2.40;;
1054;SDS011;516;51.482;7.120;2023-03-23T10:33:41;4.70;;;1.77;;
1054;SDS011;516;51.482;7.120;2023-03-23T10:39:33;5.47;;;1.83;;
1054;SDS011;516;51.482;7.120;2023-03-23T10:46:01;6.50;;;2.07;;
1054;SDS011;516;51.482;7.120;2023-03-23T10:51:56;4.40;;;2.47;;
1054;SDS011;516;51.482;7.120;2023-03-23T10:58:23;6.27;;;3.17;;
1054;SDS011;516;51.482;7.120;2023-03-23T11:04:17;2.90;;;2.10;;
1054;SDS011;516;51.482;7.120;2023-03-23T11:17:01;4.67;;;1.70;;
1054;SDS011;516;51.482;7.120;2023-03-23T11:22:50;3.50;;;2.23;;
1054;SDS011;516;51.482;7.120;2023-03-23T11:28:42;4.37;;;2.50;;
1054;SDS011;516;51.482;7.120;2023-03-23T11:34:53;3.67;;;2.40;;
1054;SDS011;516;51.482;7.120;2023-03-23T11:40:47;7.07;;;3.43;;
1054;SDS011;516;51.482;7.120;2023-03-23T11:56:42;9.23;;;5.73;;
1054;SDS011;516;51.482;7.120;2023-03-23T12:22:13;2.60;;;1.90;;
1054;SDS011;516;51.482;7.120;2023-03-23T12:28:55;3.33;;;1.87;;
1054;SDS011;516;51.482;7.120;2023-03-23T12:38:39;6.10;;;2.47;;
1054;SDS011;516;51.482;7.120;2023-03-23T12:51:02;2.93;;;2.40;;
1054;SDS011;516;51.482;7.120;2023-03-23T12:57:19;4.20;;;3.03;;
1054;SDS011;516;51.482;7.120;2023-03-23T13:16:21;2.97;;;2.50;;
1054;SDS011;516;51.482;7.120;2023-03-23T13:22:49;4.60;;;1.90;;
1054;SDS011;516;51.482;7.120;2023-03-23T13:29:18;4.53;;;2.30;;
1054;SDS011;516;51.482;7.120;2023-03-23T13:35:12;6.67;;;2.30;;
1054;SDS011;516;51.482;7.120;2023-03-23T13:41:07;4.70;;;2.70;;
1054;SDS011;516;51.482;7.120;2023-03-23T14:09:39;3.37;;;2.80;;
1054;SDS011;516;51.482;7.120;2023-03-23T14:15:30;4.70;;;3.07;;
1054;SDS011;516;51.482;7.120;2023-03-23T14:21:40;5.97;;;3.70;;
1054;SDS011;516;51.482;7.120;2023-03-23T14:38:21;4.80;;;4.20;;
1054;SDS011;516;51.482;7.120;2023-03-23T14:44:14;4.93;;;4.53;;
1054;SDS011;516;51.482;7.120;2023-03-23T14:54:07;5.23;;;4.77;;
1054;SDS011;516;51.482;7.120;2023-03-23T14:59:55;4.77;;;4.37;;
1054;SDS011;516;51.482;7.120;2023-03-23T15:05:44;13.33;;;6.20;;
1054;SDS011;516;51.482;7.120;2023-03-23T15:11:35;6.97;;;5.33;;
1054;SDS011;516;51.482;7.120;2023-03-23T15:17:27;5.57;;;4.37;;
1054;SDS011;516;51.482;7.120;2023-03-23T15:23:16;6.43;;;4.13;;
1054;SDS011;516;51.482;7.120;2023-03-23T15:29:34;6.23;;;4.40;;
1054;SDS011;516;51.482;7.120;2023-03-23T15:36:16;4.23;;;3.93;;
1054;SDS011;516;51.482;7.120;2023-03-23T15:42:05;4.50;;;4.20;;
1054;SDS011;516;51.482;7.120;2023-03-23T15:47:53;8.47;;;4.40;;
1054;SDS011;516;51.482;7.120;2023-03-23T15:53:44;5.87;;;5.27;;
1054;SDS011;516;51.482;7.120;2023-03-23T16:03:00;8.20;;;4.80;;
1054;SDS011;516;51.482;7.120;2023-03-23T16:08:51;5.03;;;4.50;;
1054;SDS011;516;51.482;7.120;2023-03-23T16:14:39;6.33;;;4.23;;
1054;SDS011;516;51.482;7.120;2023-03-23T16:20:28;5.10;;;4.70;;
1054;SDS011;516;51.482;7.120;2023-03-23T16:26:16;5.43;;;4.67;;
1054;SDS011;516;51.482;7.120;2023-03-23T16:32:04;6.80;;;5.33;;
1054;SDS011;516;51.482;7.120;2023-03-23T16:37:58;4.67;;;4.07;;
1054;SDS011;516;51.482;7.120;2023-03-23T16:43:46;5.20;;;4.07;;
1054;SDS011;516;51.482;7.120;2023-03-23T16:49:33;7.10;;;4.80;;
1054;SDS011;516;51.482;7.120;2023-03-23T16:55:00;6.73;;;6.03;;
1054;SDS011;516;51.482;7.120;2023-03-23T17:00:48;4.20;;;3.80;;
1054;SDS011;516;51.482;7.120;2023-03-23T17:06:37;6.37;;;5.00;;
1054;SDS011;516;51.482;7.120;2023-03-23T17:12:25;7.83;;;5.17;;
1054;SDS011;516;51.482;7.120;2023-03-23T17:18:13;8.87;;;6.07;;
1054;SDS011;516;51.482;7.120;2023-03-23T17:24:02;5.70;;;4.73;;
1054;SDS011;516;51.482;7.120;2023-03-23T17:29:50;10.23;;;5.13;;
1054;SDS011;516;51.482;7.120;2023-03-23T17:35:37;6.70;;;4.90;;
1054;SDS011;516;51.482;7.120;2023-03-23T17:41:25;10.70;;;5.57;;
1054;SDS011;516;51.482;7.120;2023-03-23T17:47:13;8.50;;;4.87;;
1054;SDS011;516;51.482;7.120;2023-03-23T18:02:56;9.70;;;4.90;;
1054;SDS011;516;51.482;7.120;2023-03-23T18:08:43;5.63;;;4.20;;
1054;SDS011;516;51.482;7.120;2023-03-23T18:14:31;8.30;;;5.70;;
1054;SDS011;516;51.482;7.120;2023-03-23T18:20:19;6.00;;;4.27;;
1054;SDS011;516;51.482;7.120;2023-03-23T18:26:08;6.20;;;4.83;;
1054;SDS011;516;51.482;7.120;2023-03-23T18:31:58;7.03;;;4.33;;
1054;SDS011;516;51.482;7.120;2023-03-23T18:37:46;7.30;;;5.00;;
1054;SDS011;516;51.482;7.120;2023-03-23T18:43:34;6.20;;;4.50;;
1054;SDS011;516;51.482;7.120;2023-03-23T18:49:22;9.30;;;5.10;;
1054;SDS011;516;51.482;7.120;2023-03-23T18:58:37;5.17;;;4.67;;
1054;SDS011;516;51.482;7.120;2023-03-23T19:04:25;9.40;;;4.83;;
1054;SDS011;516;51.482;7.120;2023-03-23T19:10:17;11.43;;;5.90;;
1054;SDS011;516;51.482;7.120;2023-03-23T19:16:06;9.60;;;6.03;;
1054;SDS011;516;51.482;7.120;2023-03-23T19:21:54;7.90;;;4.90;;
1054;SDS011;516;51.482;7.120;2023-03-23T19:27:42;6.60;;;5.70;;
1054;SDS011;516;51.482;7.120;2023-03-23T19:33:30;7.00;;;6.40;;
1054;SDS011;516;51.482;7.120;2023-03-23T19:39:18;19.47;;;13.30;;
1054;SDS011;516;51.482;7.120;2023-03-23T19:45:05;6.40;;;5.80;;
1054;SDS011;516;51.482;7.120;2023-03-23T19:50:54;8.20;;;5.10;;
1054;SDS011;516;51.482;7.120;2023-03-23T19:56:32;7.83;;;6.00;;
1054;SDS011;516;51.482;7.120;2023-03-23T20:02:20;5.90;;;5.40;;
1054;SDS011;516;51.482;7.120;2023-03-23T20:08:08;8.80;;;6.10;;
1054;SDS011;516;51.482;7.120;2023-03-23T20:13:57;5.97;;;5.37;;
1054;SDS011;516;51.482;7.120;2023-03-23T20:19:44;18.00;;;5.83;;
1054;SDS011;516;51.482;7.120;2023-03-23T20:25:32;10.90;;;5.70;;
1054;SDS011;516;51.482;7.120;2023-03-23T20:31:21;6.23;;;5.40;;
1054;SDS011;516;51.482;7.120;2023-03-23T20:37:14;5.53;;;4.80;;
1054;SDS011;516;51.482;7.120;2023-03-23T20:43:07;6.27;;;5.33;;
1054;SDS011;516;51.482;7.120;2023-03-23T20:48:55;6.00;;;5.40;;
1054;SDS011;516;51.482;7.120;2023-03-23T21:04:27;6.20;;;5.40;;
1054;SDS011;516;51.482;7.120;2023-03-23T21:10:16;6.33;;;5.30;;
1054;SDS011;516;51.482;7.120;2023-03-23T21:16:04;7.17;;;5.67;;
1054;SDS011;516;51.482;7.120;2023-03-23T21:21:58;5.60;;;5.07;;
1054;SDS011;516;51.482;7.120;2023-03-23T21:27:47;6.17;;;5.07;;
1054;SDS011;516;51.482;7.120;2023-03-23T21:33:35;7.30;;;5.60;;
1054;SDS011;516;51.482;7.120;2023-03-23T21:39:23;6.83;;;4.60;;
1054;SDS011;516;51.482;7.120;2023-03-23T21:45:13;6.30;;;4.50;;
1054;SDS011;516;51.482;7.120;2023-03-23T21:51:08;4.70;;;3.10;;
1054;SDS011;516;51.482;7.120;2023-03-23T21:56:33;6.50;;;3.33;;
1054;SDS011;516;51.482;7.120;2023-03-23T22:02:21;9.57;;;4.13;;
1054;SDS011;516;51.482;7.120;2023-03-23T22:08:10;8.80;;;3.97;;
1054;SDS011;516;51.482;7.120;2023-03-23T22:13:58;3.90;;;2.90;;
1054;SDS011;516;51.482;7.120;2023-03-23T22:19:50;6.33;;;3.27;;
1054;SDS011;516;51.482;7.120;2023-03-23T22:25:38;8.10;;;3.10;;
1054;SDS011;516;51.482;7.120;2023-03-23T22:31:27;3.60;;;2.53;;
1054;SDS011;516;51.482;7.120;2023-03-23T22:37:16;6.73;;;2.87;;
1054;SDS011;516;51.482;7.120;2023-03-23T22:43:04;3.80;;;2.80;;
1054;SDS011;516;51.482;7.120;2023-03-23T22:48:52;5.37;;;3.30;;
1054;SDS011;516;51.482;7.120;2023-03-23T23:04:27;5.73;;;3.57;;
1054;SDS011;516;51.482;7.120;2023-03-23T23:10:15;7.67;;;3.50;;
1054;SDS011;516;51.482;7.120;2023-03-23T23:16:02;5.00;;;2.30;;
1054;SDS011;516;51.482;7.120;2023-03-23T23:21:52;6.07;;;3.23;;
1054;SDS011;516;51.482;7.120;2023-03-23T23:27:41;4.93;;;3.90;;
1054;SDS011;516;51.482;7.120;2023-03-23T23:33:29;6.20;;;3.27;;
1054;SDS011;516;51.482;7.120;2023-03-23T23:39:17;7.17;;;3.30;;
1054;SDS011;516;51.482;7.120;2023-03-23T23:45:05;5.70;;;2.47;;
1054;SDS011;516;51.482;7.120;2023-03-23T23:50:53;6.50;;;3.10;;
1054;SDS011;516;51.482;7.120;2023-03-23T23:56:51;4.27;;;2.60;;
